sensor_id;sensor_type;location;lat;lon;timestamp;P1;durP1;ratioP1;P2;durP2;ratioP2
59512;SDS011;45330;51.634;5.562;2022-07-04T00:02:10;8.60;;;3.17;;
59512;SDS011;45330;51.634;5.562;2022-07-04T00:04:36;11.68;;;3.50;;
59512;SDS011;45330;51.634;5.562;2022-07-04T00:07:01;9.50;;;2.85;;
59512;SDS011;45330;51.634;5.562;2022-07-04T00:09:27;12.63;;;3.45;;
59512;SDS011;45330;51.634;5.562;2022-07-04T00:11:52;8.43;;;3.10;;
59512;SDS011;45330;51.634;5.562;2022-07-04T00:14:17;11.15;;;3.35;;
59512;SDS011;45330;51.634;5.562;2022-07-04T00:16:43;11.80;;;3.58;;
59512;SDS011;45330;51.634;5.562;2022-07-04T00:19:08;12.60;;;3.85;;
59512;SDS011;45330;51.634;5.562;2022-07-04T00:21:34;11.25;;;3.33;;
59512;SDS011;45330;51.634;5.562;2022-07-04T00:24:00;9.98;;;3.40;;
59512;SDS011;45330;51.634;5.562;2022-07-04T00:26:25;11.18;;;3.83;;
59512;SDS011;45330;51.634;5.562;2022-07-04T00:28:51;12.32;;;3.45;;
59512;SDS011;45330;51.634;5.562;2022-07-04T00:31:16;12.82;;;3.40;;
59512;SDS011;45330;51.634;5.562;2022-07-04T00:33:41;12.27;;;3.30;;
59512;SDS011;45330;51.634;5.562;2022-07-04T00:36:07;10.38;;;3.33;;
59512;SDS011;45330;51.634;5.562;2022-07-04T00:38:32;11.70;;;3.28;;
59512;SDS011;45330;51.634;5.562;2022-07-04T00:40:58;9.20;;;3.25;;
59512;SDS011;45330;51.634;5.562;2022-07-04T00:43:24;10.38;;;3.33;;
59512;SDS011;45330;51.634;5.562;2022-07-04T00:45:51;8.18;;;3.22;;
59512;SDS011;45330;51.634;5.562;2022-07-04T00:48:17;11.52;;;3.35;;
59512;SDS011;45330;51.634;5.562;2022-07-04T00:50:43;9.70;;;3.45;;
59512;SDS011;45330;51.634;5.562;2022-07-04T00:53:11;12.43;;;3.40;;
59512;SDS011;45330;51.634;5.562;2022-07-04T00:55:37;7.55;;;3.40;;
59512;SDS011;45330;51.634;5.562;2022-07-04T00:58:03;12.48;;;3.17;;
59512;SDS011;45330;51.634;5.562;2022-07-04T01:00:29;10.20;;;3.17;;
59512;SDS011;45330;51.634;5.562;2022-07-04T01:02:55;10.55;;;3.50;;
59512;SDS011;45330;51.634;5.562;2022-07-04T01:05:20;10.38;;;3.90;;
59512;SDS011;45330;51.634;5.562;2022-07-04T01:07:46;12.88;;;3.85;;
59512;SDS011;45330;51.634;5.562;2022-07-04T01:10:11;11.63;;;3.85;;
59512;SDS011;45330;51.634;5.562;2022-07-04T01:12:37;10.25;;;3.80;;
59512;SDS011;45330;51.634;5.562;2022-07-04T01:15:04;11.32;;;3.80;;
59512;SDS011;45330;51.634;5.562;2022-07-04T01:17:31;12.02;;;4.20;;
59512;SDS011;45330;51.634;5.562;2022-07-04T01:19:56;12.02;;;4.78;;
59512;SDS011;45330;51.634;5.562;2022-07-04T01:22:22;13.27;;;4.50;;
59512;SDS011;45330;51.634;5.562;2022-07-04T01:24:47;9.63;;;4.38;;
59512;SDS011;45330;51.634;5.562;2022-07-04T01:27:14;9.77;;;4.65;;
59512;SDS011;45330;51.634;5.562;2022-07-04T01:29:39;12.55;;;4.97;;
59512;SDS011;45330;51.634;5.562;2022-07-04T01:32:06;13.07;;;5.00;;
59512;SDS011;45330;51.634;5.562;2022-07-04T01:34:33;12.70;;;4.95;;
59512;SDS011;45330;51.634;5.562;2022-07-04T01:36:58;12.95;;;5.13;;
59512;SDS011;45330;51.634;5.562;2022-07-04T01:39:25;12.43;;;4.90;;
59512;SDS011;45330;51.634;5.562;2022-07-04T01:41:51;11.55;;;5.00;;
59512;SDS011;45330;51.634;5.562;2022-07-04T01:44:17;13.00;;;5.07;;
59512;SDS011;45330;51.634;5.562;2022-07-04T01:46:42;12.85;;;5.10;;
59512;SDS011;45330;51.634;5.562;2022-07-04T01:49:07;13.00;;;5.30;;
59512;SDS011;45330;51.634;5.562;2022-07-04T01:51:33;14.73;;;5.32;;
59512;SDS011;45330;51.634;5.562;2022-07-04T01:53:59;13.43;;;5.43;;
59512;SDS011;45330;51.634;5.562;2022-07-04T01:56:24;15.30;;;5.13;;
59512;SDS011;45330;51.634;5.562;2022-07-04T01:58:50;16.15;;;5.10;;
59512;SDS011;45330;51.634;5.562;2022-07-04T02:01:15;16.67;;;5.55;;
59512;SDS011;45330;51.634;5.562;2022-07-04T02:03:56;14.88;;;5.70;;
59512;SDS011;45330;51.634;5.562;2022-07-04T02:06:23;13.95;;;5.22;;
59512;SDS011;45330;51.634;5.562;2022-07-04T02:08:48;16.23;;;5.60;;
59512;SDS011;45330;51.634;5.562;2022-07-04T02:11:32;15.82;;;5.28;;
59512;SDS011;45330;51.634;5.562;2022-07-04T02:14:18;10.13;;;4.93;;
59512;SDS011;45330;51.634;5.562;2022-07-04T02:16:43;15.32;;;5.85;;
59512;SDS011;45330;51.634;5.562;2022-07-04T02:19:10;14.75;;;5.63;;
59512;SDS011;45330;51.634;5.562;2022-07-04T02:21:36;12.73;;;5.30;;
59512;SDS011;45330;51.634;5.562;2022-07-04T02:24:01;14.07;;;5.55;;
59512;SDS011;45330;51.634;5.562;2022-07-04T02:26:27;13.98;;;5.07;;
59512;SDS011;45330;51.634;5.562;2022-07-04T02:28:52;12.70;;;5.88;;
59512;SDS011;45330;51.634;5.562;2022-07-04T02:31:18;16.75;;;5.13;;
59512;SDS011;45330;51.634;5.562;2022-07-04T02:33:43;14.88;;;6.38;;
59512;SDS011;45330;51.634;5.562;2022-07-04T02:36:09;14.57;;;5.88;;
59512;SDS011;45330;51.634;5.562;2022-07-04T02:38:34;11.90;;;5.55;;
59512;SDS011;45330;51.634;5.562;2022-07-04T02:41:02;11.18;;;5.50;;
59512;SDS011;45330;51.634;5.562;2022-07-04T02:43:27;15.50;;;6.13;;
59512;SDS011;45330;51.634;5.562;2022-07-04T02:45:52;13.38;;;5.80;;
59512;SDS011;45330;51.634;5.562;2022-07-04T02:48:18;11.77;;;5.05;;
59512;SDS011;45330;51.634;5.562;2022-07-04T02:50:43;13.90;;;6.20;;
59512;SDS011;45330;51.634;5.562;2022-07-04T02:53:09;13.00;;;5.88;;
59512;SDS011;45330;51.634;5.562;2022-07-04T02:55:34;14.10;;;5.80;;
59512;SDS011;45330;51.634;5.562;2022-07-04T02:58:00;13.77;;;6.13;;
59512;SDS011;45330;51.634;5.562;2022-07-04T03:00:25;12.70;;;5.32;;
59512;SDS011;45330;51.634;5.562;2022-07-04T03:02:51;15.30;;;5.47;;
59512;SDS011;45330;51.634;5.562;2022-07-04T03:05:18;14.20;;;5.88;;
59512;SDS011;45330;51.634;5.562;2022-07-04T03:07:43;14.80;;;5.78;;
59512;SDS011;45330;51.634;5.562;2022-07-04T03:10:09;15.50;;;5.65;;
59512;SDS011;45330;51.634;5.562;2022-07-04T03:12:34;12.65;;;5.50;;
59512;SDS011;45330;51.634;5.562;2022-07-04T03:14:59;14.27;;;5.80;;
59512;SDS011;45330;51.634;5.562;2022-07-04T03:17:25;13.70;;;6.10;;
59512;SDS011;45330;51.634;5.562;2022-07-04T03:19:51;14.20;;;5.82;;
59512;SDS011;45330;51.634;5.562;2022-07-04T03:22:16;13.73;;;5.20;;
59512;SDS011;45330;51.634;5.562;2022-07-04T03:24:42;13.43;;;5.90;;
59512;SDS011;45330;51.634;5.562;2022-07-04T03:27:07;16.33;;;6.20;;
59512;SDS011;45330;51.634;5.562;2022-07-04T03:29:32;15.18;;;5.85;;
59512;SDS011;45330;51.634;5.562;2022-07-04T03:31:58;15.05;;;6.32;;
59512;SDS011;45330;51.634;5.562;2022-07-04T03:34:23;15.57;;;6.10;;
59512;SDS011;45330;51.634;5.562;2022-07-04T03:36:49;14.70;;;5.65;;
59512;SDS011;45330;51.634;5.562;2022-07-04T03:39:14;16.70;;;5.80;;
59512;SDS011;45330;51.634;5.562;2022-07-04T03:41:39;14.32;;;5.95;;
59512;SDS011;45330;51.634;5.562;2022-07-04T03:44:05;16.95;;;6.10;;
59512;SDS011;45330;51.634;5.562;2022-07-04T03:46:30;15.05;;;5.85;;
59512;SDS011;45330;51.634;5.562;2022-07-04T03:48:55;12.93;;;6.07;;
59512;SDS011;45330;51.634;5.562;2022-07-04T03:51:21;15.27;;;5.93;;
59512;SDS011;45330;51.634;5.562;2022-07-04T03:53:47;14.48;;;6.13;;
59512;SDS011;45330;51.634;5.562;2022-07-04T03:56:14;13.65;;;6.13;;
59512;SDS011;45330;51.634;5.562;2022-07-04T03:58:39;16.70;;;6.75;;
59512;SDS011;45330;51.634;5.562;2022-07-04T04:01:07;15.13;;;6.20;;
59512;SDS011;45330;51.634;5.562;2022-07-04T04:03:35;16.30;;;6.00;;
59512;SDS011;45330;51.634;5.562;2022-07-04T04:06:19;16.10;;;5.72;;
59512;SDS011;45330;51.634;5.562;2022-07-04T04:08:45;15.05;;;6.03;;
59512;SDS011;45330;51.634;5.562;2022-07-04T04:11:11;14.52;;;5.40;;
59512;SDS011;45330;51.634;5.562;2022-07-04T04:13:37;15.98;;;5.68;;
59512;SDS011;45330;51.634;5.562;2022-07-04T04:16:02;12.85;;;5.78;;
59512;SDS011;45330;51.634;5.562;2022-07-04T04:18:28;15.60;;;5.88;;
59512;SDS011;45330;51.634;5.562;2022-07-04T04:20:53;19.85;;;6.25;;
59512;SDS011;45330;51.634;5.562;2022-07-04T04:23:18;18.92;;;6.65;;
59512;SDS011;45330;51.634;5.562;2022-07-04T04:25:45;17.27;;;6.28;;
59512;SDS011;45330;51.634;5.562;2022-07-04T04:28:11;15.10;;;6.13;;
59512;SDS011;45330;51.634;5.562;2022-07-04T04:30:36;13.40;;;6.03;;
59512;SDS011;45330;51.634;5.562;2022-07-04T04:33:02;16.17;;;6.03;;
59512;SDS011;45330;51.634;5.562;2022-07-04T04:35:27;14.98;;;5.45;;
59512;SDS011;45330;51.634;5.562;2022-07-04T04:37:52;13.27;;;5.38;;
59512;SDS011;45330;51.634;5.562;2022-07-04T04:40:18;17.90;;;5.20;;
59512;SDS011;45330;51.634;5.562;2022-07-04T04:42:43;13.52;;;4.63;;
59512;SDS011;45330;51.634;5.562;2022-07-04T04:45:09;11.88;;;4.30;;
59512;SDS011;45330;51.634;5.562;2022-07-04T04:47:34;10.45;;;4.00;;
59512;SDS011;45330;51.634;5.562;2022-07-04T04:50:00;9.57;;;4.00;;
59512;SDS011;45330;51.634;5.562;2022-07-04T04:52:26;12.18;;;4.28;;
59512;SDS011;45330;51.634;5.562;2022-07-04T04:54:51;14.73;;;4.70;;
59512;SDS011;45330;51.634;5.562;2022-07-04T04:57:17;10.68;;;4.10;;
59512;SDS011;45330;51.634;5.562;2022-07-04T04:59:42;15.68;;;4.47;;
59512;SDS011;45330;51.634;5.562;2022-07-04T05:02:08;11.52;;;4.10;;
59512;SDS011;45330;51.634;5.562;2022-07-04T05:04:33;9.20;;;3.70;;
59512;SDS011;45330;51.634;5.562;2022-07-04T05:06:59;10.27;;;3.85;;
59512;SDS011;45330;51.634;5.562;2022-07-04T05:09:24;10.80;;;3.88;;
59512;SDS011;45330;51.634;5.562;2022-07-04T05:11:50;11.55;;;3.80;;
59512;SDS011;45330;51.634;5.562;2022-07-04T05:14:15;8.02;;;3.58;;
59512;SDS011;45330;51.634;5.562;2022-07-04T05:16:41;10.88;;;3.72;;
59512;SDS011;45330;51.634;5.562;2022-07-04T05:19:07;12.73;;;3.83;;
59512;SDS011;45330;51.634;5.562;2022-07-04T05:21:32;9.02;;;3.58;;
59512;SDS011;45330;51.634;5.562;2022-07-04T05:23:58;7.05;;;3.38;;
59512;SDS011;45330;51.634;5.562;2022-07-04T05:26:23;8.63;;;3.25;;
59512;SDS011;45330;51.634;5.562;2022-07-04T05:28:49;10.43;;;3.70;;
59512;SDS011;45330;51.634;5.562;2022-07-04T05:31:14;9.32;;;3.50;;
59512;SDS011;45330;51.634;5.562;2022-07-04T05:33:40;12.65;;;3.92;;
59512;SDS011;45330;51.634;5.562;2022-07-04T05:36:05;8.38;;;3.70;;
59512;SDS011;45330;51.634;5.562;2022-07-04T05:38:31;13.77;;;4.25;;
59512;SDS011;45330;51.634;5.562;2022-07-04T05:40:56;10.60;;;3.75;;
59512;SDS011;45330;51.634;5.562;2022-07-04T05:43:22;9.60;;;3.80;;
59512;SDS011;45330;51.634;5.562;2022-07-04T05:45:47;11.70;;;3.78;;
59512;SDS011;45330;51.634;5.562;2022-07-04T05:48:14;10.57;;;3.67;;
59512;SDS011;45330;51.634;5.562;2022-07-04T05:50:39;7.50;;;3.00;;
59512;SDS011;45330;51.634;5.562;2022-07-04T05:53:04;13.80;;;3.60;;
59512;SDS011;45330;51.634;5.562;2022-07-04T05:55:30;10.27;;;3.42;;
59512;SDS011;45330;51.634;5.562;2022-07-04T05:57:55;11.55;;;3.92;;
59512;SDS011;45330;51.634;5.562;2022-07-04T06:00:22;10.85;;;3.80;;
59512;SDS011;45330;51.634;5.562;2022-07-04T06:02:47;12.75;;;3.80;;
59512;SDS011;45330;51.634;5.562;2022-07-04T06:05:13;10.52;;;3.80;;
59512;SDS011;45330;51.634;5.562;2022-07-04T06:07:38;12.65;;;4.00;;
59512;SDS011;45330;51.634;5.562;2022-07-04T06:10:04;14.43;;;4.22;;
59512;SDS011;45330;51.634;5.562;2022-07-04T06:12:31;12.07;;;3.90;;
59512;SDS011;45330;51.634;5.562;2022-07-04T06:14:57;13.15;;;3.70;;
59512;SDS011;45330;51.634;5.562;2022-07-04T06:17:23;12.35;;;3.78;;
59512;SDS011;45330;51.634;5.562;2022-07-04T06:19:49;11.60;;;3.47;;
59512;SDS011;45330;51.634;5.562;2022-07-04T06:22:14;12.18;;;3.63;;
59512;SDS011;45330;51.634;5.562;2022-07-04T06:24:40;12.07;;;3.88;;
59512;SDS011;45330;51.634;5.562;2022-07-04T06:27:05;13.65;;;3.30;;
59512;SDS011;45330;51.634;5.562;2022-07-04T06:29:31;13.38;;;3.40;;
59512;SDS011;45330;51.634;5.562;2022-07-04T06:31:56;13.25;;;3.72;;
59512;SDS011;45330;51.634;5.562;2022-07-04T06:34:22;16.92;;;3.70;;
59512;SDS011;45330;51.634;5.562;2022-07-04T06:37:13;12.18;;;3.00;;
59512;SDS011;45330;51.634;5.562;2022-07-04T06:39:39;13.50;;;3.40;;
59512;SDS011;45330;51.634;5.562;2022-07-04T06:42:04;10.65;;;2.97;;
59512;SDS011;45330;51.634;5.562;2022-07-04T06:44:30;11.93;;;3.22;;
59512;SDS011;45330;51.634;5.562;2022-07-04T06:46:55;9.85;;;3.20;;
59512;SDS011;45330;51.634;5.562;2022-07-04T06:49:20;11.20;;;3.10;;
59512;SDS011;45330;51.634;5.562;2022-07-04T06:51:46;11.38;;;3.10;;
59512;SDS011;45330;51.634;5.562;2022-07-04T06:54:11;8.13;;;3.20;;
59512;SDS011;45330;51.634;5.562;2022-07-04T06:56:36;11.20;;;3.45;;
59512;SDS011;45330;51.634;5.562;2022-07-04T06:59:02;10.70;;;3.38;;
59512;SDS011;45330;51.634;5.562;2022-07-04T07:01:29;11.55;;;3.55;;
59512;SDS011;45330;51.634;5.562;2022-07-04T07:03:55;12.52;;;3.60;;
59512;SDS011;45330;51.634;5.562;2022-07-04T07:06:20;13.48;;;3.63;;
59512;SDS011;45330;51.634;5.562;2022-07-04T07:08:48;13.13;;;3.75;;
59512;SDS011;45330;51.634;5.562;2022-07-04T07:11:13;12.73;;;3.72;;
59512;SDS011;45330;51.634;5.562;2022-07-04T07:13:43;9.18;;;3.20;;
59512;SDS011;45330;51.634;5.562;2022-07-04T07:16:12;9.18;;;3.20;;
59512;SDS011;45330;51.634;5.562;2022-07-04T07:18:38;11.02;;;3.08;;
59512;SDS011;45330;51.634;5.562;2022-07-04T07:21:04;8.50;;;3.00;;
59512;SDS011;45330;51.634;5.562;2022-07-04T07:23:29;13.40;;;3.10;;
59512;SDS011;45330;51.634;5.562;2022-07-04T07:25:55;12.57;;;3.65;;
59512;SDS011;45330;51.634;5.562;2022-07-04T07:28:20;9.25;;;2.95;;
59512;SDS011;45330;51.634;5.562;2022-07-04T07:30:46;11.63;;;3.40;;
59512;SDS011;45330;51.634;5.562;2022-07-04T07:33:11;11.95;;;3.10;;
59512;SDS011;45330;51.634;5.562;2022-07-04T07:35:37;13.82;;;3.40;;
59512;SDS011;45330;51.634;5.562;2022-07-04T07:38:02;11.05;;;3.45;;
59512;SDS011;45330;51.634;5.562;2022-07-04T07:40:28;10.70;;;3.45;;
59512;SDS011;45330;51.634;5.562;2022-07-04T07:42:53;11.60;;;3.30;;
59512;SDS011;45330;51.634;5.562;2022-07-04T07:45:19;10.40;;;3.10;;
59512;SDS011;45330;51.634;5.562;2022-07-04T07:47:45;12.52;;;3.30;;
59512;SDS011;45330;51.634;5.562;2022-07-04T07:50:11;9.85;;;3.00;;
59512;SDS011;45330;51.634;5.562;2022-07-04T07:52:37;9.30;;;3.40;;
59512;SDS011;45330;51.634;5.562;2022-07-04T07:55:03;10.98;;;3.22;;
59512;SDS011;45330;51.634;5.562;2022-07-04T07:57:29;15.80;;;3.85;;
59512;SDS011;45330;51.634;5.562;2022-07-04T07:59:55;10.65;;;3.20;;
59512;SDS011;45330;51.634;5.562;2022-07-04T08:02:21;10.75;;;3.30;;
59512;SDS011;45330;51.634;5.562;2022-07-04T08:05:05;11.75;;;3.60;;
59512;SDS011;45330;51.634;5.562;2022-07-04T08:07:31;10.45;;;3.47;;
59512;SDS011;45330;51.634;5.562;2022-07-04T08:09:56;11.20;;;3.50;;
59512;SDS011;45330;51.634;5.562;2022-07-04T08:12:22;10.00;;;3.80;;
59512;SDS011;45330;51.634;5.562;2022-07-04T08:14:47;10.02;;;3.10;;
59512;SDS011;45330;51.634;5.562;2022-07-04T08:17:13;11.10;;;3.50;;
59512;SDS011;45330;51.634;5.562;2022-07-04T08:19:38;10.98;;;3.00;;
59512;SDS011;45330;51.634;5.562;2022-07-04T08:22:03;6.90;;;2.55;;
59512;SDS011;45330;51.634;5.562;2022-07-04T08:28:24;10.30;;;2.67;;
59512;SDS011;45330;51.634;5.562;2022-07-04T08:30:50;10.13;;;2.20;;
59512;SDS011;45330;51.634;5.562;2022-07-04T08:33:15;6.70;;;1.95;;
59512;SDS011;45330;51.634;5.562;2022-07-04T08:35:40;10.23;;;2.08;;
59512;SDS011;45330;51.634;5.562;2022-07-04T08:38:06;8.52;;;2.40;;
59512;SDS011;45330;51.634;5.562;2022-07-04T08:40:31;6.22;;;2.10;;
59512;SDS011;45330;51.634;5.562;2022-07-04T08:42:58;9.05;;;2.25;;
59512;SDS011;45330;51.634;5.562;2022-07-04T08:45:32;6.78;;;2.25;;
59512;SDS011;45330;51.634;5.562;2022-07-04T08:47:59;8.20;;;2.10;;
59512;SDS011;45330;51.634;5.562;2022-07-04T08:50:30;10.90;;;2.15;;
59512;SDS011;45330;51.634;5.562;2022-07-04T08:52:59;11.15;;;2.22;;
59512;SDS011;45330;51.634;5.562;2022-07-04T08:55:28;11.23;;;2.22;;
59512;SDS011;45330;51.634;5.562;2022-07-04T08:58:12;8.18;;;2.17;;
59512;SDS011;45330;51.634;5.562;2022-07-04T09:00:57;9.20;;;2.53;;
59512;SDS011;45330;51.634;5.562;2022-07-04T09:03:25;12.13;;;2.83;;
59512;SDS011;45330;51.634;5.562;2022-07-04T09:05:51;11.73;;;2.60;;
59512;SDS011;45330;51.634;5.562;2022-07-04T09:08:18;9.38;;;2.72;;
59512;SDS011;45330;51.634;5.562;2022-07-04T09:10:43;9.98;;;2.88;;
59512;SDS011;45330;51.634;5.562;2022-07-04T09:13:10;10.80;;;2.78;;
59512;SDS011;45330;51.634;5.562;2022-07-04T09:15:38;8.02;;;2.38;;
59512;SDS011;45330;51.634;5.562;2022-07-04T09:18:04;8.98;;;2.83;;
59512;SDS011;45330;51.634;5.562;2022-07-04T09:20:31;12.02;;;2.60;;
59512;SDS011;45330;51.634;5.562;2022-07-04T09:22:57;11.73;;;2.55;;
59512;SDS011;45330;51.634;5.562;2022-07-04T09:25:23;8.25;;;2.10;;
59512;SDS011;45330;51.634;5.562;2022-07-04T09:27:53;8.43;;;2.25;;
59512;SDS011;45330;51.634;5.562;2022-07-04T09:30:21;9.85;;;2.40;;
59512;SDS011;45330;51.634;5.562;2022-07-04T09:32:49;9.05;;;2.38;;
59512;SDS011;45330;51.634;5.562;2022-07-04T09:35:23;9.88;;;2.45;;
59512;SDS011;45330;51.634;5.562;2022-07-04T09:37:51;8.30;;;2.13;;
59512;SDS011;45330;51.634;5.562;2022-07-04T09:42:51;8.30;;;2.47;;
59512;SDS011;45330;51.634;5.562;2022-07-04T09:45:17;9.52;;;2.40;;
59512;SDS011;45330;51.634;5.562;2022-07-04T09:47:44;8.52;;;2.60;;
59512;SDS011;45330;51.634;5.562;2022-07-04T09:55:22;11.05;;;2.20;;
59512;SDS011;45330;51.634;5.562;2022-07-04T09:57:50;8.93;;;2.20;;
59512;SDS011;45330;51.634;5.562;2022-07-04T10:00:18;8.35;;;2.33;;
59512;SDS011;45330;51.634;5.562;2022-07-04T10:02:50;8.05;;;2.03;;
59512;SDS011;45330;51.634;5.562;2022-07-04T10:05:20;9.73;;;2.20;;
59512;SDS011;45330;51.634;5.562;2022-07-04T10:07:48;8.48;;;2.45;;
59512;SDS011;45330;51.634;5.562;2022-07-04T10:10:20;10.68;;;2.50;;
59512;SDS011;45330;51.634;5.562;2022-07-04T10:12:58;9.75;;;2.60;;
59512;SDS011;45330;51.634;5.562;2022-07-04T10:15:25;11.98;;;2.58;;
59512;SDS011;45330;51.634;5.562;2022-07-04T10:17:50;10.40;;;2.70;;
59512;SDS011;45330;51.634;5.562;2022-07-04T10:20:16;13.77;;;2.58;;
59512;SDS011;45330;51.634;5.562;2022-07-04T10:22:42;10.13;;;2.83;;
59512;SDS011;45330;51.634;5.562;2022-07-04T10:25:08;8.30;;;2.08;;
59512;SDS011;45330;51.634;5.562;2022-07-04T10:27:34;8.35;;;2.03;;
59512;SDS011;45330;51.634;5.562;2022-07-04T10:30:01;12.48;;;2.10;;
59512;SDS011;45330;51.634;5.562;2022-07-04T10:32:29;9.20;;;2.20;;
59512;SDS011;45330;51.634;5.562;2022-07-04T10:34:56;5.55;;;2.08;;
59512;SDS011;45330;51.634;5.562;2022-07-04T10:37:22;6.18;;;2.30;;
59512;SDS011;45330;51.634;5.562;2022-07-04T10:39:47;12.10;;;2.63;;
59512;SDS011;45330;51.634;5.562;2022-07-04T10:42:22;9.80;;;2.20;;
59512;SDS011;45330;51.634;5.562;2022-07-04T10:44:49;9.85;;;2.40;;
59512;SDS011;45330;51.634;5.562;2022-07-04T10:47:23;8.40;;;2.58;;
59512;SDS011;45330;51.634;5.562;2022-07-04T10:49:50;7.53;;;2.38;;
59512;SDS011;45330;51.634;5.562;2022-07-04T10:52:16;8.57;;;2.45;;
59512;SDS011;45330;51.634;5.562;2022-07-04T10:54:42;10.32;;;2.90;;
59512;SDS011;45330;51.634;5.562;2022-07-04T11:02:23;11.57;;;2.58;;
59512;SDS011;45330;51.634;5.562;2022-07-04T11:20:20;13.32;;;3.47;;
59512;SDS011;45330;51.634;5.562;2022-07-04T11:22:47;9.40;;;3.05;;
59512;SDS011;45330;51.634;5.562;2022-07-04T11:25:13;15.88;;;3.53;;
59512;SDS011;45330;51.634;5.562;2022-07-04T11:27:39;14.52;;;3.47;;
59512;SDS011;45330;51.634;5.562;2022-07-04T11:30:05;9.55;;;3.20;;
59512;SDS011;45330;51.634;5.562;2022-07-04T11:32:32;11.98;;;3.63;;
59512;SDS011;45330;51.634;5.562;2022-07-04T11:34:59;12.10;;;3.60;;
59512;SDS011;45330;51.634;5.562;2022-07-04T11:37:25;12.82;;;3.58;;
59512;SDS011;45330;51.634;5.562;2022-07-04T11:39:54;12.82;;;3.75;;
59512;SDS011;45330;51.634;5.562;2022-07-04T11:42:39;14.98;;;4.85;;
59512;SDS011;45330;51.634;5.562;2022-07-04T11:45:23;14.32;;;4.60;;
59512;SDS011;45330;51.634;5.562;2022-07-04T11:47:49;18.13;;;4.70;;
59512;SDS011;45330;51.634;5.562;2022-07-04T11:50:15;13.63;;;4.18;;
59512;SDS011;45330;51.634;5.562;2022-07-04T11:52:44;13.80;;;3.90;;
59512;SDS011;45330;51.634;5.562;2022-07-04T11:55:17;10.55;;;3.95;;
59512;SDS011;45330;51.634;5.562;2022-07-04T12:00:17;10.77;;;3.63;;
59512;SDS011;45330;51.634;5.562;2022-07-04T12:02:45;12.63;;;3.25;;
59512;SDS011;45330;51.634;5.562;2022-07-04T12:05:12;11.80;;;3.28;;
59512;SDS011;45330;51.634;5.562;2022-07-04T12:07:43;10.95;;;3.30;;
59512;SDS011;45330;51.634;5.562;2022-07-04T12:10:42;12.65;;;3.20;;
59512;SDS011;45330;51.634;5.562;2022-07-04T12:13:05;10.90;;;2.83;;
59512;SDS011;45330;51.634;5.562;2022-07-04T12:15:40;12.35;;;3.42;;
59512;SDS011;45330;51.634;5.562;2022-07-04T12:18:15;9.63;;;3.22;;
59512;SDS011;45330;51.634;5.562;2022-07-04T12:20:52;7.68;;;2.90;;
59512;SDS011;45330;51.634;5.562;2022-07-04T12:23:19;14.75;;;3.42;;
59512;SDS011;45330;51.634;5.562;2022-07-04T12:25:46;9.15;;;3.00;;
59512;SDS011;45330;51.634;5.562;2022-07-04T12:28:13;9.25;;;3.20;;
59512;SDS011;45330;51.634;5.562;2022-07-04T12:30:48;11.95;;;2.40;;
59512;SDS011;45330;51.634;5.562;2022-07-04T12:33:17;8.35;;;2.60;;
59512;SDS011;45330;51.634;5.562;2022-07-04T12:35:44;7.50;;;2.53;;
59512;SDS011;45330;51.634;5.562;2022-07-04T12:38:18;10.43;;;2.90;;
59512;SDS011;45330;51.634;5.562;2022-07-04T12:40:58;13.23;;;3.80;;
59512;SDS011;45330;51.634;5.562;2022-07-04T12:46:06;13.98;;;3.45;;
59512;SDS011;45330;51.634;5.562;2022-07-04T12:48:37;10.18;;;3.05;;
59512;SDS011;45330;51.634;5.562;2022-07-04T12:53:39;9.10;;;2.80;;
59512;SDS011;45330;51.634;5.562;2022-07-04T12:56:06;7.97;;;2.60;;
59512;SDS011;45330;51.634;5.562;2022-07-04T12:58:33;4.53;;;2.00;;
59512;SDS011;45330;51.634;5.562;2022-07-04T13:00:59;12.88;;;2.80;;
59512;SDS011;45330;51.634;5.562;2022-07-04T13:03:24;9.20;;;2.83;;
59512;SDS011;45330;51.634;5.562;2022-07-04T13:05:50;7.97;;;2.90;;
59512;SDS011;45330;51.634;5.562;2022-07-04T13:08:15;8.73;;;2.60;;
59512;SDS011;45330;51.634;5.562;2022-07-04T13:10:41;10.10;;;2.65;;
59512;SDS011;45330;51.634;5.562;2022-07-04T13:13:06;9.27;;;2.53;;
59512;SDS011;45330;51.634;5.562;2022-07-04T13:15:32;7.78;;;2.53;;
59512;SDS011;45330;51.634;5.562;2022-07-04T13:17:57;8.50;;;2.63;;
59512;SDS011;45330;51.634;5.562;2022-07-04T13:20:23;8.05;;;2.22;;
59512;SDS011;45330;51.634;5.562;2022-07-04T13:22:48;9.57;;;2.60;;
59512;SDS011;45330;51.634;5.562;2022-07-04T13:25:14;6.40;;;2.42;;
59512;SDS011;45330;51.634;5.562;2022-07-04T13:27:40;7.05;;;2.50;;
59512;SDS011;45330;51.634;5.562;2022-07-04T13:30:05;7.25;;;2.03;;
59512;SDS011;45330;51.634;5.562;2022-07-04T13:32:31;5.20;;;2.05;;
59512;SDS011;45330;51.634;5.562;2022-07-04T13:34:58;6.15;;;2.40;;
59512;SDS011;45330;51.634;5.562;2022-07-04T13:37:23;9.57;;;2.20;;
59512;SDS011;45330;51.634;5.562;2022-07-04T13:39:49;9.48;;;2.30;;
59512;SDS011;45330;51.634;5.562;2022-07-04T13:42:14;6.00;;;2.13;;
59512;SDS011;45330;51.634;5.562;2022-07-04T13:45:00;6.97;;;2.22;;
59512;SDS011;45330;51.634;5.562;2022-07-04T13:47:25;6.68;;;2.13;;
59512;SDS011;45330;51.634;5.562;2022-07-04T13:49:51;6.72;;;2.10;;
59512;SDS011;45330;51.634;5.562;2022-07-04T13:52:16;10.23;;;2.08;;
59512;SDS011;45330;51.634;5.562;2022-07-04T13:54:41;6.95;;;2.20;;
59512;SDS011;45330;51.634;5.562;2022-07-04T13:57:07;6.82;;;2.33;;
59512;SDS011;45330;51.634;5.562;2022-07-04T13:59:32;6.55;;;2.25;;
59512;SDS011;45330;51.634;5.562;2022-07-04T14:01:57;6.70;;;2.13;;
59512;SDS011;45330;51.634;5.562;2022-07-04T14:04:23;6.00;;;2.25;;
59512;SDS011;45330;51.634;5.562;2022-07-04T14:06:48;7.15;;;2.83;;
59512;SDS011;45330;51.634;5.562;2022-07-04T14:09:14;7.22;;;2.40;;
59512;SDS011;45330;51.634;5.562;2022-07-04T14:11:39;7.75;;;2.40;;
59512;SDS011;45330;51.634;5.562;2022-07-04T14:14:05;8.55;;;2.50;;
59512;SDS011;45330;51.634;5.562;2022-07-04T14:16:30;7.88;;;2.42;;
59512;SDS011;45330;51.634;5.562;2022-07-04T14:18:56;8.38;;;2.20;;
59512;SDS011;45330;51.634;5.562;2022-07-04T14:21:22;6.20;;;2.08;;
59512;SDS011;45330;51.634;5.562;2022-07-04T14:23:47;6.60;;;2.20;;
59512;SDS011;45330;51.634;5.562;2022-07-04T14:26:14;5.65;;;2.22;;
59512;SDS011;45330;51.634;5.562;2022-07-04T14:28:41;6.97;;;2.30;;
59512;SDS011;45330;51.634;5.562;2022-07-04T14:31:09;5.60;;;2.20;;
59512;SDS011;45330;51.634;5.562;2022-07-04T14:33:35;4.85;;;2.20;;
59512;SDS011;45330;51.634;5.562;2022-07-04T14:36:01;6.55;;;2.05;;
59512;SDS011;45330;51.634;5.562;2022-07-04T14:38:31;5.13;;;1.95;;
59512;SDS011;45330;51.634;5.562;2022-07-04T14:40:57;6.68;;;2.10;;
59512;SDS011;45330;51.634;5.562;2022-07-04T14:43:34;8.85;;;2.60;;
59512;SDS011;45330;51.634;5.562;2022-07-04T14:46:07;8.07;;;2.50;;
59512;SDS011;45330;51.634;5.562;2022-07-04T14:48:33;11.30;;;2.65;;
59512;SDS011;45330;51.634;5.562;2022-07-04T14:50:59;8.63;;;2.50;;
59512;SDS011;45330;51.634;5.562;2022-07-04T14:53:25;6.85;;;2.20;;
59512;SDS011;45330;51.634;5.562;2022-07-04T14:55:50;9.93;;;2.63;;
59512;SDS011;45330;51.634;5.562;2022-07-04T14:58:16;8.10;;;2.20;;
59512;SDS011;45330;51.634;5.562;2022-07-04T15:00:41;6.80;;;2.30;;
59512;SDS011;45330;51.634;5.562;2022-07-04T15:03:06;7.13;;;2.53;;
59512;SDS011;45330;51.634;5.562;2022-07-04T15:05:32;4.50;;;2.20;;
59512;SDS011;45330;51.634;5.562;2022-07-04T15:07:57;8.32;;;2.30;;
59512;SDS011;45330;51.634;5.562;2022-07-04T15:10:23;5.53;;;2.35;;
59512;SDS011;45330;51.634;5.562;2022-07-04T15:12:48;7.28;;;2.13;;
59512;SDS011;45330;51.634;5.562;2022-07-04T15:15:14;8.27;;;2.25;;
59512;SDS011;45330;51.634;5.562;2022-07-04T15:17:40;7.30;;;2.25;;